sensor_id;sensor_type;location;lat;lon;timestamp;P1;durP1;ratioP1;P2;durP2;ratioP2
51814;SDS011;37874;53.158;6.766;2023-08-06T00:02:23;1.83;;;1.00;;
51814;SDS011;37874;53.158;6.766;2023-08-06T00:04:48;2.25;;;1.20;;
51814;SDS011;37874;53.158;6.766;2023-08-06T00:07:14;3.03;;;1.00;;
51814;SDS011;37874;53.158;6.766;2023-08-06T00:09:39;2.13;;;1.20;;
51814;SDS011;37874;53.158;6.766;2023-08-06T00:12:05;2.15;;;1.08;;
51814;SDS011;37874;53.158;6.766;2023-08-06T00:14:31;2.42;;;1.20;;
51814;SDS011;37874;53.158;6.766;2023-08-06T00:16:56;2.78;;;1.20;;
51814;SDS011;37874;53.158;6.766;2023-08-06T00:19:22;3.15;;;0.90;;
51814;SDS011;37874;53.158;6.766;2023-08-06T00:21:48;1.98;;;1.10;;
51814;SDS011;37874;53.158;6.766;2023-08-06T00:24:13;1.75;;;0.93;;
51814;SDS011;37874;53.158;6.766;2023-08-06T00:26:39;2.20;;;0.90;;
51814;SDS011;37874;53.158;6.766;2023-08-06T00:29:04;1.85;;;1.00;;
51814;SDS011;37874;53.158;6.766;2023-08-06T00:31:30;2.10;;;0.98;;
51814;SDS011;37874;53.158;6.766;2023-08-06T00:33:56;2.63;;;1.10;;
51814;SDS011;37874;53.158;6.766;2023-08-06T00:36:21;2.25;;;1.15;;
51814;SDS011;37874;53.158;6.766;2023-08-06T00:38:47;1.52;;;0.90;;
51814;SDS011;37874;53.158;6.766;2023-08-06T00:41:13;2.10;;;1.15;;
51814;SDS011;37874;53.158;6.766;2023-08-06T00:43:39;1.70;;;1.00;;
51814;SDS011;37874;53.158;6.766;2023-08-06T00:46:04;1.60;;;1.00;;
51814;SDS011;37874;53.158;6.766;2023-08-06T00:48:31;1.52;;;0.98;;
51814;SDS011;37874;53.158;6.766;2023-08-06T00:50:56;1.75;;;1.00;;
51814;SDS011;37874;53.158;6.766;2023-08-06T00:53:22;1.63;;;1.10;;
51814;SDS011;37874;53.158;6.766;2023-08-06T00:55:48;2.28;;;1.10;;
51814;SDS011;37874;53.158;6.766;2023-08-06T00:58:15;1.98;;;1.02;;
51814;SDS011;37874;53.158;6.766;2023-08-06T01:00:41;1.73;;;0.77;;
51814;SDS011;37874;53.158;6.766;2023-08-06T01:03:07;1.50;;;0.93;;
51814;SDS011;37874;53.158;6.766;2023-08-06T01:05:33;1.60;;;0.82;;
51814;SDS011;37874;53.158;6.766;2023-08-06T01:10:32;2.70;;;1.33;;
51814;SDS011;37874;53.158;6.766;2023-08-06T01:13:24;1.80;;;1.00;;
51814;SDS011;37874;53.158;6.766;2023-08-06T01:15:56;2.13;;;1.02;;
51814;SDS011;37874;53.158;6.766;2023-08-06T01:18:24;1.70;;;1.10;;
51814;SDS011;37874;53.158;6.766;2023-08-06T01:20:51;1.63;;;0.90;;
51814;SDS011;37874;53.158;6.766;2023-08-06T01:23:17;2.20;;;1.10;;
51814;SDS011;37874;53.158;6.766;2023-08-06T01:31:50;2.15;;;0.98;;
51814;SDS011;37874;53.158;6.766;2023-08-06T01:34:20;2.45;;;1.13;;
51814;SDS011;37874;53.158;6.766;2023-08-06T01:36:47;1.85;;;1.00;;
51814;SDS011;37874;53.158;6.766;2023-08-06T01:39:14;1.73;;;0.98;;
51814;SDS011;37874;53.158;6.766;2023-08-06T01:41:39;2.22;;;1.08;;
51814;SDS011;37874;53.158;6.766;2023-08-06T01:44:05;2.88;;;1.08;;
51814;SDS011;37874;53.158;6.766;2023-08-06T01:46:30;1.63;;;1.00;;
51814;SDS011;37874;53.158;6.766;2023-08-06T01:48:56;2.58;;;1.42;;
51814;SDS011;37874;53.158;6.766;2023-08-06T01:51:22;4.47;;;1.10;;
51814;SDS011;37874;53.158;6.766;2023-08-06T01:53:47;4.97;;;1.33;;
51814;SDS011;37874;53.158;6.766;2023-08-06T01:56:13;3.50;;;1.20;;
51814;SDS011;37874;53.158;6.766;2023-08-06T01:58:39;2.58;;;1.25;;
51814;SDS011;37874;53.158;6.766;2023-08-06T02:01:04;3.17;;;1.48;;
51814;SDS011;37874;53.158;6.766;2023-08-06T02:03:30;3.75;;;1.45;;
51814;SDS011;37874;53.158;6.766;2023-08-06T02:05:55;2.90;;;1.50;;
51814;SDS011;37874;53.158;6.766;2023-08-06T02:08:21;2.88;;;1.40;;
51814;SDS011;37874;53.158;6.766;2023-08-06T02:10:47;3.90;;;1.48;;
51814;SDS011;37874;53.158;6.766;2023-08-06T02:13:13;3.42;;;1.10;;
51814;SDS011;37874;53.158;6.766;2023-08-06T02:15:45;3.20;;;1.38;;
51814;SDS011;37874;53.158;6.766;2023-08-06T02:18:14;3.70;;;1.10;;
51814;SDS011;37874;53.158;6.766;2023-08-06T02:20:41;3.92;;;1.25;;
51814;SDS011;37874;53.158;6.766;2023-08-06T02:23:07;2.60;;;1.20;;
51814;SDS011;37874;53.158;6.766;2023-08-06T02:25:32;4.18;;;1.40;;
51814;SDS011;37874;53.158;6.766;2023-08-06T02:27:58;3.58;;;1.30;;
51814;SDS011;37874;53.158;6.766;2023-08-06T02:30:24;4.00;;;1.30;;
51814;SDS011;37874;53.158;6.766;2023-08-06T02:32:50;2.90;;;1.27;;
51814;SDS011;37874;53.158;6.766;2023-08-06T02:35:15;2.78;;;1.17;;
51814;SDS011;37874;53.158;6.766;2023-08-06T02:37:41;3.10;;;1.25;;
51814;SDS011;37874;53.158;6.766;2023-08-06T02:40:06;2.90;;;1.17;;
51814;SDS011;37874;53.158;6.766;2023-08-06T02:42:32;1.98;;;1.30;;
51814;SDS011;37874;53.158;6.766;2023-08-06T02:44:58;2.75;;;1.08;;
51814;SDS011;37874;53.158;6.766;2023-08-06T02:47:24;3.30;;;1.50;;
51814;SDS011;37874;53.158;6.766;2023-08-06T02:49:49;2.42;;;1.10;;
51814;SDS011;37874;53.158;6.766;2023-08-06T02:52:15;4.63;;;1.40;;
51814;SDS011;37874;53.158;6.766;2023-08-06T02:54:41;3.53;;;1.27;;
51814;SDS011;37874;53.158;6.766;2023-08-06T02:57:07;2.20;;;1.25;;
51814;SDS011;37874;53.158;6.766;2023-08-06T02:59:33;1.83;;;1.00;;
51814;SDS011;37874;53.158;6.766;2023-08-06T03:01:59;2.38;;;1.20;;
51814;SDS011;37874;53.158;6.766;2023-08-06T03:04:24;3.13;;;1.20;;
51814;SDS011;37874;53.158;6.766;2023-08-06T03:06:50;3.65;;;1.20;;
51814;SDS011;37874;53.158;6.766;2023-08-06T03:09:16;2.35;;;0.93;;
51814;SDS011;37874;53.158;6.766;2023-08-06T03:11:42;3.03;;;1.20;;
51814;SDS011;37874;53.158;6.766;2023-08-06T03:14:08;3.22;;;1.30;;
51814;SDS011;37874;53.158;6.766;2023-08-06T03:16:34;4.28;;;1.30;;
51814;SDS011;37874;53.158;6.766;2023-08-06T03:19:00;3.05;;;1.27;;
51814;SDS011;37874;53.158;6.766;2023-08-06T03:21:25;1.90;;;1.20;;
51814;SDS011;37874;53.158;6.766;2023-08-06T03:23:51;3.30;;;1.08;;
51814;SDS011;37874;53.158;6.766;2023-08-06T03:26:16;2.83;;;1.10;;
51814;SDS011;37874;53.158;6.766;2023-08-06T03:28:42;2.20;;;1.10;;
51814;SDS011;37874;53.158;6.766;2023-08-06T03:31:08;4.35;;;1.30;;
51814;SDS011;37874;53.158;6.766;2023-08-06T03:33:34;4.55;;;1.23;;
51814;SDS011;37874;53.158;6.766;2023-08-06T03:35:59;2.20;;;1.15;;
51814;SDS011;37874;53.158;6.766;2023-08-06T03:38:25;2.85;;;1.02;;
51814;SDS011;37874;53.158;6.766;2023-08-06T03:40:51;2.55;;;1.30;;
51814;SDS011;37874;53.158;6.766;2023-08-06T03:43:16;1.60;;;1.00;;
51814;SDS011;37874;53.158;6.766;2023-08-06T03:45:42;4.68;;;1.20;;
51814;SDS011;37874;53.158;6.766;2023-08-06T03:48:08;5.35;;;1.20;;
51814;SDS011;37874;53.158;6.766;2023-08-06T03:50:34;3.08;;;1.08;;
51814;SDS011;37874;53.158;6.766;2023-08-06T03:53:00;2.00;;;1.10;;
51814;SDS011;37874;53.158;6.766;2023-08-06T03:55:26;2.28;;;0.90;;
51814;SDS011;37874;53.158;6.766;2023-08-06T03:57:52;3.63;;;1.33;;
51814;SDS011;37874;53.158;6.766;2023-08-06T04:00:17;2.28;;;1.20;;
51814;SDS011;37874;53.158;6.766;2023-08-06T04:02:43;2.80;;;1.10;;
51814;SDS011;37874;53.158;6.766;2023-08-06T04:05:09;3.83;;;1.30;;
51814;SDS011;37874;53.158;6.766;2023-08-06T04:07:34;2.85;;;1.20;;
51814;SDS011;37874;53.158;6.766;2023-08-06T04:10:01;1.65;;;1.15;;
51814;SDS011;37874;53.158;6.766;2023-08-06T04:12:28;2.92;;;1.30;;
51814;SDS011;37874;53.158;6.766;2023-08-06T04:14:54;2.20;;;1.25;;
51814;SDS011;37874;53.158;6.766;2023-08-06T04:17:21;5.78;;;1.20;;
51814;SDS011;37874;53.158;6.766;2023-08-06T04:19:47;2.95;;;1.05;;
51814;SDS011;37874;53.158;6.766;2023-08-06T04:22:15;2.83;;;1.00;;
51814;SDS011;37874;53.158;6.766;2023-08-06T04:24:41;2.60;;;1.10;;
51814;SDS011;37874;53.158;6.766;2023-08-06T04:27:08;3.85;;;1.20;;
51814;SDS011;37874;53.158;6.766;2023-08-06T04:29:37;4.57;;;1.52;;
51814;SDS011;37874;53.158;6.766;2023-08-06T04:32:04;2.97;;;1.27;;
51814;SDS011;37874;53.158;6.766;2023-08-06T04:34:30;5.03;;;1.20;;
51814;SDS011;37874;53.158;6.766;2023-08-06T04:36:56;2.13;;;1.00;;
51814;SDS011;37874;53.158;6.766;2023-08-06T04:39:21;3.20;;;1.10;;
51814;SDS011;37874;53.158;6.766;2023-08-06T04:41:47;2.17;;;1.38;;
51814;SDS011;37874;53.158;6.766;2023-08-06T04:44:13;2.30;;;1.10;;
51814;SDS011;37874;53.158;6.766;2023-08-06T04:46:38;2.28;;;0.93;;
51814;SDS011;37874;53.158;6.766;2023-08-06T04:49:04;2.50;;;1.17;;
51814;SDS011;37874;53.158;6.766;2023-08-06T04:51:29;5.10;;;1.25;;
51814;SDS011;37874;53.158;6.766;2023-08-06T04:53:56;2.00;;;1.05;;
51814;SDS011;37874;53.158;6.766;2023-08-06T04:56:22;3.22;;;1.15;;
51814;SDS011;37874;53.158;6.766;2023-08-06T04:58:49;1.92;;;1.00;;
51814;SDS011;37874;53.158;6.766;2023-08-06T05:01:15;1.77;;;1.00;;
51814;SDS011;37874;53.158;6.766;2023-08-06T05:03:41;2.00;;;1.00;;
51814;SDS011;37874;53.158;6.766;2023-08-06T05:06:07;2.25;;;1.15;;
51814;SDS011;37874;53.158;6.766;2023-08-06T05:08:33;3.33;;;1.10;;
51814;SDS011;37874;53.158;6.766;2023-08-06T05:10:58;2.72;;;1.10;;
51814;SDS011;37874;53.158;6.766;2023-08-06T05:13:24;2.78;;;1.15;;
51814;SDS011;37874;53.158;6.766;2023-08-06T05:15:50;2.65;;;1.15;;
51814;SDS011;37874;53.158;6.766;2023-08-06T05:18:18;3.20;;;1.08;;
51814;SDS011;37874;53.158;6.766;2023-08-06T05:20:44;2.53;;;1.00;;
51814;SDS011;37874;53.158;6.766;2023-08-06T05:23:10;3.08;;;1.20;;
51814;SDS011;37874;53.158;6.766;2023-08-06T05:25:35;3.67;;;1.20;;
51814;SDS011;37874;53.158;6.766;2023-08-06T05:28:02;4.13;;;1.67;;
51814;SDS011;37874;53.158;6.766;2023-08-06T05:30:28;2.20;;;1.00;;
51814;SDS011;37874;53.158;6.766;2023-08-06T05:32:54;3.10;;;1.20;;
51814;SDS011;37874;53.158;6.766;2023-08-06T05:35:20;2.60;;;1.00;;
51814;SDS011;37874;53.158;6.766;2023-08-06T05:37:46;2.30;;;1.08;;
51814;SDS011;37874;53.158;6.766;2023-08-06T05:40:12;1.90;;;1.00;;
51814;SDS011;37874;53.158;6.766;2023-08-06T05:42:38;2.00;;;0.90;;
51814;SDS011;37874;53.158;6.766;2023-08-06T05:45:05;1.77;;;0.98;;
51814;SDS011;37874;53.158;6.766;2023-08-06T05:47:30;2.60;;;1.20;;
51814;SDS011;37874;53.158;6.766;2023-08-06T05:49:56;1.98;;;1.02;;
51814;SDS011;37874;53.158;6.766;2023-08-06T05:52:22;2.35;;;0.90;;
51814;SDS011;37874;53.158;6.766;2023-08-06T05:54:47;1.15;;;0.80;;
51814;SDS011;37874;53.158;6.766;2023-08-06T05:57:13;3.08;;;1.13;;
51814;SDS011;37874;53.158;6.766;2023-08-06T05:59:40;2.53;;;1.17;;
51814;SDS011;37874;53.158;6.766;2023-08-06T06:02:06;1.63;;;0.90;;
51814;SDS011;37874;53.158;6.766;2023-08-06T06:04:31;2.05;;;1.10;;
51814;SDS011;37874;53.158;6.766;2023-08-06T06:06:57;2.25;;;1.10;;
51814;SDS011;37874;53.158;6.766;2023-08-06T06:09:23;1.80;;;0.88;;
51814;SDS011;37874;53.158;6.766;2023-08-06T06:11:48;2.13;;;1.00;;
51814;SDS011;37874;53.158;6.766;2023-08-06T06:14:15;3.85;;;1.13;;
51814;SDS011;37874;53.158;6.766;2023-08-06T06:16:42;2.97;;;0.90;;
51814;SDS011;37874;53.158;6.766;2023-08-06T06:19:07;2.80;;;1.10;;
51814;SDS011;37874;53.158;6.766;2023-08-06T06:21:34;2.35;;;0.98;;
51814;SDS011;37874;53.158;6.766;2023-08-06T06:24:00;1.48;;;0.90;;
51814;SDS011;37874;53.158;6.766;2023-08-06T06:26:26;3.55;;;1.10;;
51814;SDS011;37874;53.158;6.766;2023-08-06T06:28:52;2.65;;;0.95;;
51814;SDS011;37874;53.158;6.766;2023-08-06T06:31:17;3.33;;;1.30;;
51814;SDS011;37874;53.158;6.766;2023-08-06T06:33:43;2.20;;;1.15;;
51814;SDS011;37874;53.158;6.766;2023-08-06T06:36:08;1.85;;;0.95;;
51814;SDS011;37874;53.158;6.766;2023-08-06T06:38:34;1.45;;;0.82;;
51814;SDS011;37874;53.158;6.766;2023-08-06T06:41:00;1.52;;;0.95;;
51814;SDS011;37874;53.158;6.766;2023-08-06T06:43:28;2.40;;;0.90;;
51814;SDS011;37874;53.158;6.766;2023-08-06T06:45:57;1.98;;;0.95;;
51814;SDS011;37874;53.158;6.766;2023-08-06T06:48:26;1.73;;;0.98;;
51814;SDS011;37874;53.158;6.766;2023-08-06T06:50:56;2.00;;;0.93;;
51814;SDS011;37874;53.158;6.766;2023-08-06T06:53:22;1.20;;;0.65;;
51814;SDS011;37874;53.158;6.766;2023-08-06T06:55:54;2.80;;;1.35;;
51814;SDS011;37874;53.158;6.766;2023-08-06T06:58:20;2.10;;;0.95;;
51814;SDS011;37874;53.158;6.766;2023-08-06T07:00:47;2.55;;;1.00;;
51814;SDS011;37874;53.158;6.766;2023-08-06T07:03:13;2.50;;;0.90;;
51814;SDS011;37874;53.158;6.766;2023-08-06T07:05:40;1.15;;;0.77;;
51814;SDS011;37874;53.158;6.766;2023-08-06T07:08:05;2.67;;;1.10;;
51814;SDS011;37874;53.158;6.766;2023-08-06T07:10:31;1.98;;;0.90;;
51814;SDS011;37874;53.158;6.766;2023-08-06T07:12:56;1.92;;;0.95;;
51814;SDS011;37874;53.158;6.766;2023-08-06T07:15:22;3.30;;;1.05;;
51814;SDS011;37874;53.158;6.766;2023-08-06T07:17:48;1.40;;;0.80;;
51814;SDS011;37874;53.158;6.766;2023-08-06T07:20:13;1.63;;;0.95;;
51814;SDS011;37874;53.158;6.766;2023-08-06T07:22:39;1.20;;;0.80;;
51814;SDS011;37874;53.158;6.766;2023-08-06T07:25:05;1.50;;;0.80;;
51814;SDS011;37874;53.158;6.766;2023-08-06T07:27:31;3.05;;;0.93;;
51814;SDS011;37874;53.158;6.766;2023-08-06T07:29:57;1.52;;;0.85;;
51814;SDS011;37874;53.158;6.766;2023-08-06T07:32:23;2.17;;;1.08;;
51814;SDS011;37874;53.158;6.766;2023-08-06T07:34:49;1.67;;;0.80;;
51814;SDS011;37874;53.158;6.766;2023-08-06T07:37:15;1.85;;;0.73;;
51814;SDS011;37874;53.158;6.766;2023-08-06T07:39:41;2.78;;;0.90;;
51814;SDS011;37874;53.158;6.766;2023-08-06T07:42:08;1.77;;;1.00;;
51814;SDS011;37874;53.158;6.766;2023-08-06T07:44:35;1.55;;;0.90;;
51814;SDS011;37874;53.158;6.766;2023-08-06T07:47:01;2.30;;;0.93;;
51814;SDS011;37874;53.158;6.766;2023-08-06T07:49:26;1.90;;;1.00;;
51814;SDS011;37874;53.158;6.766;2023-08-06T07:51:52;1.58;;;0.90;;
51814;SDS011;37874;53.158;6.766;2023-08-06T07:54:18;1.83;;;0.90;;
51814;SDS011;37874;53.158;6.766;2023-08-06T07:56:43;1.65;;;0.82;;
51814;SDS011;37874;53.158;6.766;2023-08-06T07:59:09;1.27;;;0.80;;
51814;SDS011;37874;53.158;6.766;2023-08-06T08:01:35;1.83;;;0.82;;
51814;SDS011;37874;53.158;6.766;2023-08-06T08:04:00;1.88;;;1.08;;
51814;SDS011;37874;53.158;6.766;2023-08-06T08:06:26;1.58;;;0.80;;
51814;SDS011;37874;53.158;6.766;2023-08-06T08:08:52;2.22;;;1.05;;
51814;SDS011;37874;53.158;6.766;2023-08-06T08:11:17;1.48;;;0.95;;
51814;SDS011;37874;53.158;6.766;2023-08-06T08:13:43;2.05;;;0.70;;
51814;SDS011;37874;53.158;6.766;2023-08-06T08:16:09;1.75;;;0.93;;
51814;SDS011;37874;53.158;6.766;2023-08-06T08:18:35;1.60;;;0.88;;
51814;SDS011;37874;53.158;6.766;2023-08-06T08:21:01;2.05;;;0.73;;
51814;SDS011;37874;53.158;6.766;2023-08-06T08:23:26;2.08;;;0.90;;
51814;SDS011;37874;53.158;6.766;2023-08-06T08:25:52;1.92;;;0.90;;
51814;SDS011;37874;53.158;6.766;2023-08-06T08:28:21;1.55;;;0.93;;
51814;SDS011;37874;53.158;6.766;2023-08-06T08:30:46;1.38;;;0.77;;
51814;SDS011;37874;53.158;6.766;2023-08-06T08:33:12;1.25;;;0.73;;
51814;SDS011;37874;53.158;6.766;2023-08-06T08:35:38;1.33;;;0.80;;
51814;SDS011;37874;53.158;6.766;2023-08-06T08:38:05;1.52;;;0.82;;
51814;SDS011;37874;53.158;6.766;2023-08-06T08:40:34;3.97;;;0.90;;
51814;SDS011;37874;53.158;6.766;2023-08-06T08:43:04;3.13;;;0.75;;
51814;SDS011;37874;53.158;6.766;2023-08-06T08:45:30;3.38;;;1.00;;
51814;SDS011;37874;53.158;6.766;2023-08-06T08:48:00;1.60;;;0.80;;
51814;SDS011;37874;53.158;6.766;2023-08-06T08:50:26;1.17;;;0.77;;
51814;SDS011;37874;53.158;6.766;2023-08-06T08:52:51;2.13;;;0.80;;
51814;SDS011;37874;53.158;6.766;2023-08-06T08:55:17;2.00;;;1.10;;
51814;SDS011;37874;53.158;6.766;2023-08-06T08:57:46;1.65;;;1.00;;
51814;SDS011;37874;53.158;6.766;2023-08-06T09:00:12;1.17;;;0.70;;
51814;SDS011;37874;53.158;6.766;2023-08-06T09:02:39;2.42;;;0.90;;
51814;SDS011;37874;53.158;6.766;2023-08-06T09:05:07;1.27;;;0.90;;
51814;SDS011;37874;53.158;6.766;2023-08-06T09:07:45;1.85;;;0.90;;
51814;SDS011;37874;53.158;6.766;2023-08-06T09:10:14;1.27;;;0.70;;
51814;SDS011;37874;53.158;6.766;2023-08-06T09:12:43;1.27;;;0.77;;
51814;SDS011;37874;53.158;6.766;2023-08-06T09:15:09;1.52;;;0.82;;
51814;SDS011;37874;53.158;6.766;2023-08-06T09:17:36;1.55;;;0.70;;
51814;SDS011;37874;53.158;6.766;2023-08-06T09:20:11;1.33;;;0.70;;
51814;SDS011;37874;53.158;6.766;2023-08-06T09:22:38;2.03;;;1.00;;
51814;SDS011;37874;53.158;6.766;2023-08-06T09:25:07;1.42;;;0.80;;
51814;SDS011;37874;53.158;6.766;2023-08-06T09:27:39;1.42;;;0.80;;
51814;SDS011;37874;53.158;6.766;2023-08-06T09:30:08;1.75;;;0.90;;
51814;SDS011;37874;53.158;6.766;2023-08-06T09:32:55;1.58;;;0.80;;
51814;SDS011;37874;53.158;6.766;2023-08-06T09:35:21;2.70;;;1.00;;
51814;SDS011;37874;53.158;6.766;2023-08-06T09:37:46;1.60;;;0.90;;
51814;SDS011;37874;53.158;6.766;2023-08-06T09:43:08;1.73;;;0.80;;
51814;SDS011;37874;53.158;6.766;2023-08-06T09:45:37;1.17;;;0.80;;
51814;SDS011;37874;53.158;6.766;2023-08-06T09:48:04;1.98;;;0.98;;
51814;SDS011;37874;53.158;6.766;2023-08-06T09:50:31;1.95;;;0.75;;
51814;SDS011;37874;53.158;6.766;2023-08-06T09:53:02;1.98;;;0.90;;
51814;SDS011;37874;53.158;6.766;2023-08-06T09:55:29;1.20;;;0.80;;
51814;SDS011;37874;53.158;6.766;2023-08-06T09:57:55;2.00;;;0.90;;
51814;SDS011;37874;53.158;6.766;2023-08-06T10:00:24;1.73;;;0.77;;
51814;SDS011;37874;53.158;6.766;2023-08-06T10:02:50;1.40;;;0.70;;
51814;SDS011;37874;53.158;6.766;2023-08-06T10:05:19;2.45;;;1.00;;
51814;SDS011;37874;53.158;6.766;2023-08-06T10:07:46;1.60;;;0.90;;
51814;SDS011;37874;53.158;6.766;2023-08-06T10:10:12;1.77;;;1.00;;
51814;SDS011;37874;53.158;6.766;2023-08-06T10:12:59;1.98;;;1.10;;
51814;SDS011;37874;53.158;6.766;2023-08-06T10:15:26;1.23;;;0.80;;
51814;SDS011;37874;53.158;6.766;2023-08-06T10:17:55;1.42;;;0.80;;
51814;SDS011;37874;53.158;6.766;2023-08-06T10:20:23;1.42;;;0.80;;
51814;SDS011;37874;53.158;6.766;2023-08-06T10:23:22;1.80;;;1.00;;
51814;SDS011;37874;53.158;6.766;2023-08-06T10:25:42;1.48;;;0.80;;
51814;SDS011;37874;53.158;6.766;2023-08-06T10:28:11;1.88;;;0.95;;
51814;SDS011;37874;53.158;6.766;2023-08-06T10:30:47;1.65;;;0.90;;
51814;SDS011;37874;53.158;6.766;2023-08-06T10:33:13;2.25;;;0.88;;
51814;SDS011;37874;53.158;6.766;2023-08-06T10:38:21;1.05;;;0.70;;
51814;SDS011;37874;53.158;6.766;2023-08-06T10:45:54;2.15;;;0.90;;
51814;SDS011;37874;53.158;6.766;2023-08-06T10:51:01;1.45;;;0.77;;
51814;SDS011;37874;53.158;6.766;2023-08-06T10:53:27;1.33;;;0.90;;
51814;SDS011;37874;53.158;6.766;2023-08-06T10:55:53;1.60;;;0.77;;
51814;SDS011;37874;53.158;6.766;2023-08-06T10:58:19;1.90;;;0.75;;
51814;SDS011;37874;53.158;6.766;2023-08-06T11:00:45;1.58;;;0.80;;
51814;SDS011;37874;53.158;6.766;2023-08-06T11:03:11;1.35;;;0.70;;
51814;SDS011;37874;53.158;6.766;2023-08-06T11:05:37;1.50;;;0.90;;
51814;SDS011;37874;53.158;6.766;2023-08-06T11:08:02;1.70;;;1.00;;
51814;SDS011;37874;53.158;6.766;2023-08-06T11:10:28;1.63;;;0.88;;
51814;SDS011;37874;53.158;6.766;2023-08-06T11:13:00;1.40;;;0.70;;
51814;SDS011;37874;53.158;6.766;2023-08-06T11:15:27;1.60;;;0.90;;
51814;SDS011;37874;53.158;6.766;2023-08-06T11:17:53;1.63;;;0.90;;
51814;SDS011;37874;53.158;6.766;2023-08-06T11:20:19;1.40;;;0.90;;
51814;SDS011;37874;53.158;6.766;2023-08-06T11:22:46;1.30;;;0.70;;
51814;SDS011;37874;53.158;6.766;2023-08-06T11:25:12;2.70;;;0.95;;
51814;SDS011;37874;53.158;6.766;2023-08-06T11:27:38;1.70;;;0.90;;
51814;SDS011;37874;53.158;6.766;2023-08-06T11:30:04;1.77;;;0.68;;
51814;SDS011;37874;53.158;6.766;2023-08-06T11:32:44;1.83;;;0.88;;
51814;SDS011;37874;53.158;6.766;2023-08-06T11:35:11;1.65;;;0.82;;
51814;SDS011;37874;53.158;6.766;2023-08-06T11:37:38;1.23;;;0.80;;
51814;SDS011;37874;53.158;6.766;2023-08-06T11:40:09;1.40;;;0.85;;
51814;SDS011;37874;53.158;6.766;2023-08-06T11:42:36;1.42;;;0.80;;
51814;SDS011;37874;53.158;6.766;2023-08-06T11:45:02;1.65;;;0.90;;
51814;SDS011;37874;53.158;6.766;2023-08-06T11:47:29;1.88;;;0.93;;
51814;SDS011;37874;53.158;6.766;2023-08-06T11:49:55;1.80;;;0.80;;
51814;SDS011;37874;53.158;6.766;2023-08-06T11:54:59;1.30;;;0.65;;
51814;SDS011;37874;53.158;6.766;2023-08-06T11:57:31;1.77;;;0.82;;
51814;SDS011;37874;53.158;6.766;2023-08-06T12:00:09;1.63;;;0.93;;
51814;SDS011;37874;53.158;6.766;2023-08-06T12:02:38;1.40;;;0.70;;
51814;SDS011;37874;53.158;6.766;2023-08-06T12:10:18;1.33;;;0.73;;
51814;SDS011;37874;53.158;6.766;2023-08-06T12:12:48;1.30;;;0.70;;
51814;SDS011;37874;53.158;6.766;2023-08-06T12:15:15;1.27;;;0.70;;
51814;SDS011;37874;53.158;6.766;2023-08-06T12:17:40;1.23;;;0.68;;
51814;SDS011;37874;53.158;6.766;2023-08-06T12:20:06;1.42;;;0.82;;
51814;SDS011;37874;53.158;6.766;2023-08-06T12:22:33;1.55;;;0.80;;
51814;SDS011;37874;53.158;6.766;2023-08-06T12:25:04;1.95;;;0.60;;
51814;SDS011;37874;53.158;6.766;2023-08-06T12:27:40;1.35;;;0.68;;
51814;SDS011;37874;53.158;6.766;2023-08-06T12:30:07;1.23;;;0.50;;
51814;SDS011;37874;53.158;6.766;2023-08-06T12:32:33;1.30;;;0.57;;
51814;SDS011;37874;53.158;6.766;2023-08-06T12:34:59;1.50;;;0.73;;
51814;SDS011;37874;53.158;6.766;2023-08-06T12:37:26;1.20;;;0.68;;
51814;SDS011;37874;53.158;6.766;2023-08-06T12:39:51;2.03;;;0.65;;
51814;SDS011;37874;53.158;6.766;2023-08-06T12:42:17;1.35;;;0.70;;
51814;SDS011;37874;53.158;6.766;2023-08-06T12:44:48;1.90;;;0.80;;
51814;SDS011;37874;53.158;6.766;2023-08-06T12:47:13;1.75;;;0.93;;
51814;SDS011;37874;53.158;6.766;2023-08-06T12:49:39;1.23;;;0.73;;
51814;SDS011;37874;53.158;6.766;2023-08-06T12:52:05;2.00;;;0.70;;
51814;SDS011;37874;53.158;6.766;2023-08-06T12:54:34;1.20;;;0.70;;
51814;SDS011;37874;53.158;6.766;2023-08-06T12:57:03;1.75;;;0.50;;
51814;SDS011;37874;53.158;6.766;2023-08-06T12:59:29;2.55;;;0.90;;
51814;SDS011;37874;53.158;6.766;2023-08-06T13:01:55;1.92;;;0.80;;
51814;SDS011;37874;53.158;6.766;2023-08-06T13:04:21;2.63;;;1.00;;
51814;SDS011;37874;53.158;6.766;2023-08-06T13:06:47;2.17;;;0.90;;
51814;SDS011;37874;53.158;6.766;2023-08-06T13:09:15;2.50;;;0.90;;
51814;SDS011;37874;53.158;6.766;2023-08-06T13:11:44;2.75;;;1.00;;
51814;SDS011;37874;53.158;6.766;2023-08-06T13:14:13;2.85;;;1.13;;
51814;SDS011;37874;53.158;6.766;2023-08-06T13:16:42;2.83;;;1.00;;
51814;SDS011;37874;53.158;6.766;2023-08-06T13:19:08;2.25;;;0.80;;
51814;SDS011;37874;53.158;6.766;2023-08-06T13:22:20;2.15;;;0.90;;
51814;SDS011;37874;53.158;6.766;2023-08-06T13:24:26;4.68;;;0.90;;
51814;SDS011;37874;53.158;6.766;2023-08-06T13:26:52;2.83;;;0.90;;
51814;SDS011;37874;53.158;6.766;2023-08-06T13:29:18;2.45;;;1.00;;
51814;SDS011;37874;53.158;6.766;2023-08-06T13:31:43;2.17;;;0.90;;
51814;SDS011;37874;53.158;6.766;2023-08-06T13:34:09;2.60;;;0.90;;
51814;SDS011;37874;53.158;6.766;2023-08-06T13:36:34;3.67;;;1.17;;
51814;SDS011;37874;53.158;6.766;2023-08-06T13:39:00;2.45;;;1.23;;
51814;SDS011;37874;53.158;6.766;2023-08-06T13:41:30;3.17;;;1.38;;
51814;SDS011;37874;53.158;6.766;2023-08-06T13:43:56;3.90;;;1.45;;
51814;SDS011;37874;53.158;6.766;2023-08-06T13:46:22;3.33;;;1.05;;
51814;SDS011;37874;53.158;6.766;2023-08-06T13:48:48;4.32;;;1.58;;
51814;SDS011;37874;53.158;6.766;2023-08-06T13:51:15;4.57;;;1.42;;
51814;SDS011;37874;53.158;6.766;2023-08-06T13:53:42;4.03;;;1.50;;
51814;SDS011;37874;53.158;6.766;2023-08-06T13:56:08;4.15;;;1.50;;
51814;SDS011;37874;53.158;6.766;2023-08-06T13:58:36;3.65;;;1.80;;
51814;SDS011;37874;53.158;6.766;2023-08-06T14:01:09;3.30;;;1.70;;
51814;SDS011;37874;53.158;6.766;2023-08-06T14:03:36;3.55;;;1.80;;
51814;SDS011;37874;53.158;6.766;2023-08-06T14:06:01;3.92;;;1.60;;
51814;SDS011;37874;53.158;6.766;2023-08-06T14:08:27;3.92;;;1.80;;
51814;SDS011;37874;53.158;6.766;2023-08-06T14:10:53;4.45;;;2.08;;
51814;SDS011;37874;53.158;6.766;2023-08-06T14:13:19;4.85;;;1.70;;
51814;SDS011;37874;53.158;6.766;2023-08-06T14:15:45;3.72;;;1.88;;
51814;SDS011;37874;53.158;6.766;2023-08-06T14:18:14;4.40;;;1.70;;
51814;SDS011;37874;53.158;6.766;2023-08-06T14:20:41;4.10;;;1.85;;
51814;SDS011;37874;53.158;6.766;2023-08-06T14:23:07;3.88;;;1.88;;
51814;SDS011;37874;53.158;6.766;2023-08-06T14:25:34;3.97;;;2.10;;
51814;SDS011;37874;53.158;6.766;2023-08-06T14:27:59;3.47;;;1.85;;
51814;SDS011;37874;53.158;6.766;2023-08-06T14:30:25;4.10;;;1.90;;
51814;SDS011;37874;53.158;6.766;2023-08-06T14:32:51;4.82;;;1.77;;
51814;SDS011;37874;53.158;6.766;2023-08-06T14:35:17;3.65;;;2.10;;
51814;SDS011;37874;53.158;6.766;2023-08-06T14:37:42;3.47;;;1.80;;
51814;SDS011;37874;53.158;6.766;2023-08-06T14:40:09;3.55;;;1.67;;
51814;SDS011;37874;53.158;6.766;2023-08-06T14:42:36;3.60;;;1.70;;
51814;SDS011;37874;53.158;6.766;2023-08-06T14:45:01;4.07;;;1.75;;
51814;SDS011;37874;53.158;6.766;2023-08-06T14:47:29;3.45;;;1.60;;
51814;SDS011;37874;53.158;6.766;2023-08-06T14:49:54;2.97;;;1.70;;
51814;SDS011;37874;53.158;6.766;2023-08-06T14:52:20;5.18;;;1.90;;
51814;SDS011;37874;53.158;6.766;2023-08-06T14:54:46;2.95;;;1.63;;
51814;SDS011;37874;53.158;6.766;2023-08-06T14:57:12;3.85;;;1.60;;
51814;SDS011;37874;53.158;6.766;2023-08-06T14:59:39;3.50;;;1.60;;
51814;SDS011;37874;53.158;6.766;2023-08-06T15:02:05;3.92;;;1.65;;
51814;SDS011;37874;53.158;6.766;2023-08-06T15:04:31;3.50;;;1.90;;
51814;SDS011;37874;53.158;6.766;2023-08-06T15:06:57;2.80;;;1.40;;
51814;SDS011;37874;53.158;6.766;2023-08-06T15:09:22;3.00;;;1.70;;
51814;SDS011;37874;53.158;6.766;2023-08-06T15:11:48;3.88;;;1.77;;
51814;SDS011;37874;53.158;6.766;2023-08-06T15:14:17;3.20;;;1.55;;
51814;SDS011;37874;53.158;6.766;2023-08-06T15:16:46;3.63;;;1.52;;